sensor_id;sensor_type;location;lat;lon;timestamp;temperature;humidity
28761;DHT22;15917;50.014;8.352;2022-10-16T00:00:30;15.20;99.90
28761;DHT22;15917;50.014;8.352;2022-10-16T00:02:56;15.20;99.90
28761;DHT22;15917;50.014;8.352;2022-10-16T00:05:21;15.20;99.90
28761;DHT22;15917;50.014;8.352;2022-10-16T00:07:47;15.20;99.90
28761;DHT22;15917;50.014;8.352;2022-10-16T00:10:13;15.20;99.90
28761;DHT22;15917;50.014;8.352;2022-10-16T00:12:38;15.20;99.90
28761;DHT22;15917;50.014;8.352;2022-10-16T00:15:04;15.20;99.90
28761;DHT22;15917;50.014;8.352;2022-10-16T00:17:31;15.20;99.90
28761;DHT22;15917;50.014;8.352;2022-10-16T00:19:56;15.20;99.90
28761;DHT22;15917;50.014;8.352;2022-10-16T00:22:22;15.10;99.90
28761;DHT22;15917;50.014;8.352;2022-10-16T00:24:48;15.10;99.90
28761;DHT22;15917;50.014;8.352;2022-10-16T00:27:13;15.10;99.90
28761;DHT22;15917;50.014;8.352;2022-10-16T00:29:39;15.10;99.90
28761;DHT22;15917;50.014;8.352;2022-10-16T00:32:04;15.10;99.90
28761;DHT22;15917;50.014;8.352;2022-10-16T00:34:30;15.10;99.90
28761;DHT22;15917;50.014;8.352;2022-10-16T00:36:56;15.10;99.90
28761;DHT22;15917;50.014;8.352;2022-10-16T00:39:21;15.00;99.90
28761;DHT22;15917;50.014;8.352;2022-10-16T00:41:47;15.00;99.90
28761;DHT22;15917;50.014;8.352;2022-10-16T00:44:46;15.00;99.90
28761;DHT22;15917;50.014;8.352;2022-10-16T00:47:18;15.00;99.90
28761;DHT22;15917;50.014;8.352;2022-10-16T00:49:46;15.10;99.90
28761;DHT22;15917;50.014;8.352;2022-10-16T00:52:13;15.10;99.90
28761;DHT22;15917;50.014;8.352;2022-10-16T00:54:39;15.10;99.90
28761;DHT22;15917;50.014;8.352;2022-10-16T00:57:06;15.10;99.90
28761;DHT22;15917;50.014;8.352;2022-10-16T00:59:40;15.20;99.90
28761;DHT22;15917;50.014;8.352;2022-10-16T01:02:12;15.20;99.90
28761;DHT22;15917;50.014;8.352;2022-10-16T01:04:48;15.20;99.90
28761;DHT22;15917;50.014;8.352;2022-10-16T01:07:24;15.20;99.90
28761;DHT22;15917;50.014;8.352;2022-10-16T01:10:17;15.30;99.90
28761;DHT22;15917;50.014;8.352;2022-10-16T01:12:58;15.30;99.90
28761;DHT22;15917;50.014;8.352;2022-10-16T01:15:42;15.30;99.90
28761;DHT22;15917;50.014;8.352;2022-10-16T01:18:11;15.30;99.90
28761;DHT22;15917;50.014;8.352;2022-10-16T01:26:10;15.30;99.90
28761;DHT22;15917;50.014;8.352;2022-10-16T01:28:53;15.30;99.90
28761;DHT22;15917;50.014;8.352;2022-10-16T01:31:29;15.30;99.90
28761;DHT22;15917;50.014;8.352;2022-10-16T01:34:01;15.30;99.90
28761;DHT22;15917;50.014;8.352;2022-10-16T01:36:38;15.30;99.90
28761;DHT22;15917;50.014;8.352;2022-10-16T01:39:06;15.30;99.90
28761;DHT22;15917;50.014;8.352;2022-10-16T01:41:51;15.30;99.90
28761;DHT22;15917;50.014;8.352;2022-10-16T01:44:38;15.30;99.90
28761;DHT22;15917;50.014;8.352;2022-10-16T01:47:05;15.30;99.90
28761;DHT22;15917;50.014;8.352;2022-10-16T01:49:36;15.30;99.90
28761;DHT22;15917;50.014;8.352;2022-10-16T01:52:06;15.30;99.90
28761;DHT22;15917;50.014;8.352;2022-10-16T01:54:35;15.30;99.90
28761;DHT22;15917;50.014;8.352;2022-10-16T01:57:04;15.30;99.90
28761;DHT22;15917;50.014;8.352;2022-10-16T01:59:40;15.30;99.90
28761;DHT22;15917;50.014;8.352;2022-10-16T02:02:09;15.30;99.90
28761;DHT22;15917;50.014;8.352;2022-10-16T02:04:45;15.30;99.90
28761;DHT22;15917;50.014;8.352;2022-10-16T02:07:12;15.40;99.90
28761;DHT22;15917;50.014;8.352;2022-10-16T02:09:38;15.30;99.90
28761;DHT22;15917;50.014;8.352;2022-10-16T02:14:41;15.40;99.90
28761;DHT22;15917;50.014;8.352;2022-10-16T02:17:16;15.30;99.90
28761;DHT22;15917;50.014;8.352;2022-10-16T02:19:44;15.30;99.90
28761;DHT22;15917;50.014;8.352;2022-10-16T02:22:24;15.30;99.90
28761;DHT22;15917;50.014;8.352;2022-10-16T02:24:55;15.30;99.90
28761;DHT22;15917;50.014;8.352;2022-10-16T02:32:53;15.40;99.90
28761;DHT22;15917;50.014;8.352;2022-10-16T02:35:20;15.40;99.90
28761;DHT22;15917;50.014;8.352;2022-10-16T02:37:48;15.40;99.90
28761;DHT22;15917;50.014;8.352;2022-10-16T02:40:14;15.40;99.90
28761;DHT22;15917;50.014;8.352;2022-10-16T02:42:40;15.40;99.90
28761;DHT22;15917;50.014;8.352;2022-10-16T02:45:09;15.40;99.90
28761;DHT22;15917;50.014;8.352;2022-10-16T02:47:35;15.40;99.90
28761;DHT22;15917;50.014;8.352;2022-10-16T02:50:01;15.40;99.90
28761;DHT22;15917;50.014;8.352;2022-10-16T02:52:26;15.50;99.90
28761;DHT22;15917;50.014;8.352;2022-10-16T02:54:52;15.50;99.90
28761;DHT22;15917;50.014;8.352;2022-10-16T02:57:18;15.40;99.90
28761;DHT22;15917;50.014;8.352;2022-10-16T02:59:44;15.40;99.90
28761;DHT22;15917;50.014;8.352;2022-10-16T03:02:10;15.40;99.90
28761;DHT22;15917;50.014;8.352;2022-10-16T03:04:36;15.40;99.90
28761;DHT22;15917;50.014;8.352;2022-10-16T03:07:02;15.40;99.90
28761;DHT22;15917;50.014;8.352;2022-10-16T03:09:27;15.40;99.90
28761;DHT22;15917;50.014;8.352;2022-10-16T03:11:53;15.40;99.90
28761;DHT22;15917;50.014;8.352;2022-10-16T03:14:18;15.40;99.90
28761;DHT22;15917;50.014;8.352;2022-10-16T03:16:44;15.40;99.90
28761;DHT22;15917;50.014;8.352;2022-10-16T03:19:10;15.40;99.90
28761;DHT22;15917;50.014;8.352;2022-10-16T03:21:35;15.40;99.90
28761;DHT22;15917;50.014;8.352;2022-10-16T03:24:01;15.40;99.90
28761;DHT22;15917;50.014;8.352;2022-10-16T03:26:26;15.40;99.90
28761;DHT22;15917;50.014;8.352;2022-10-16T03:28:52;15.40;99.90
28761;DHT22;15917;50.014;8.352;2022-10-16T03:31:17;15.40;99.90
28761;DHT22;15917;50.014;8.352;2022-10-16T03:33:43;15.40;99.90
28761;DHT22;15917;50.014;8.352;2022-10-16T03:36:09;15.40;99.90
28761;DHT22;15917;50.014;8.352;2022-10-16T03:38:34;15.40;99.90
28761;DHT22;15917;50.014;8.352;2022-10-16T03:41:00;15.40;99.90
28761;DHT22;15917;50.014;8.352;2022-10-16T03:43:25;15.40;99.90
28761;DHT22;15917;50.014;8.352;2022-10-16T03:45:51;15.40;99.90
28761;DHT22;15917;50.014;8.352;2022-10-16T03:48:18;15.40;99.90
28761;DHT22;15917;50.014;8.352;2022-10-16T03:50:43;15.40;99.90
28761;DHT22;15917;50.014;8.352;2022-10-16T03:53:09;15.40;99.90
28761;DHT22;15917;50.014;8.352;2022-10-16T03:55:35;15.40;99.90
28761;DHT22;15917;50.014;8.352;2022-10-16T03:58:01;15.40;99.90
28761;DHT22;15917;50.014;8.352;2022-10-16T04:00:26;15.40;99.90
28761;DHT22;15917;50.014;8.352;2022-10-16T04:02:52;15.40;99.90
28761;DHT22;15917;50.014;8.352;2022-10-16T04:05:18;15.40;99.90
28761;DHT22;15917;50.014;8.352;2022-10-16T04:07:43;15.40;99.90
28761;DHT22;15917;50.014;8.352;2022-10-16T04:10:09;15.40;99.90
28761;DHT22;15917;50.014;8.352;2022-10-16T04:12:35;15.40;99.90
28761;DHT22;15917;50.014;8.352;2022-10-16T04:15:01;15.40;99.90
28761;DHT22;15917;50.014;8.352;2022-10-16T04:17:27;15.40;99.90
28761;DHT22;15917;50.014;8.352;2022-10-16T04:19:52;15.40;99.90
28761;DHT22;15917;50.014;8.352;2022-10-16T04:22:18;15.40;99.90
28761;DHT22;15917;50.014;8.352;2022-10-16T04:24:44;15.40;99.90
28761;DHT22;15917;50.014;8.352;2022-10-16T04:27:09;15.40;99.90
28761;DHT22;15917;50.014;8.352;2022-10-16T04:29:35;15.30;99.90
28761;DHT22;15917;50.014;8.352;2022-10-16T04:32:00;15.30;99.90
28761;DHT22;15917;50.014;8.352;2022-10-16T04:34:26;15.40;99.90
28761;DHT22;15917;50.014;8.352;2022-10-16T04:36:52;15.30;99.90
28761;DHT22;15917;50.014;8.352;2022-10-16T04:39:18;15.30;99.90
28761;DHT22;15917;50.014;8.352;2022-10-16T04:41:43;15.30;99.90
28761;DHT22;15917;50.014;8.352;2022-10-16T04:44:09;15.30;99.90
28761;DHT22;15917;50.014;8.352;2022-10-16T04:46:35;15.30;99.90
28761;DHT22;15917;50.014;8.352;2022-10-16T04:49:00;15.30;99.90
28761;DHT22;15917;50.014;8.352;2022-10-16T04:51:26;15.30;99.90
28761;DHT22;15917;50.014;8.352;2022-10-16T04:53:53;15.30;99.90
28761;DHT22;15917;50.014;8.352;2022-10-16T04:56:20;15.30;99.90
28761;DHT22;15917;50.014;8.352;2022-10-16T04:58:46;15.20;99.90
28761;DHT22;15917;50.014;8.352;2022-10-16T05:01:13;15.30;99.90
28761;DHT22;15917;50.014;8.352;2022-10-16T05:03:39;15.30;99.90
28761;DHT22;15917;50.014;8.352;2022-10-16T05:06:06;15.30;99.90
28761;DHT22;15917;50.014;8.352;2022-10-16T05:08:31;15.30;99.90
28761;DHT22;15917;50.014;8.352;2022-10-16T05:10:57;15.30;99.90
28761;DHT22;15917;50.014;8.352;2022-10-16T05:13:22;15.30;99.90
28761;DHT22;15917;50.014;8.352;2022-10-16T05:15:49;15.30;99.90
28761;DHT22;15917;50.014;8.352;2022-10-16T05:18:15;15.30;99.90
28761;DHT22;15917;50.014;8.352;2022-10-16T05:20:41;15.30;99.90
28761;DHT22;15917;50.014;8.352;2022-10-16T05:23:07;15.30;99.90
28761;DHT22;15917;50.014;8.352;2022-10-16T05:25:35;15.30;99.90
28761;DHT22;15917;50.014;8.352;2022-10-16T05:28:01;15.30;99.90
28761;DHT22;15917;50.014;8.352;2022-10-16T05:30:27;15.30;99.90
28761;DHT22;15917;50.014;8.352;2022-10-16T05:32:52;15.30;99.90
28761;DHT22;15917;50.014;8.352;2022-10-16T05:35:18;15.30;99.90
28761;DHT22;15917;50.014;8.352;2022-10-16T05:37:44;15.30;99.90
28761;DHT22;15917;50.014;8.352;2022-10-16T05:40:11;15.30;99.90
28761;DHT22;15917;50.014;8.352;2022-10-16T05:42:37;15.30;99.90
28761;DHT22;15917;50.014;8.352;2022-10-16T05:45:04;15.30;99.90
28761;DHT22;15917;50.014;8.352;2022-10-16T05:47:30;15.30;99.90
28761;DHT22;15917;50.014;8.352;2022-10-16T05:49:56;15.30;99.90
28761;DHT22;15917;50.014;8.352;2022-10-16T05:52:21;15.30;99.90
28761;DHT22;15917;50.014;8.352;2022-10-16T05:54:47;15.40;99.90
28761;DHT22;15917;50.014;8.352;2022-10-16T05:57:12;15.40;99.90
28761;DHT22;15917;50.014;8.352;2022-10-16T05:59:38;15.40;99.90
28761;DHT22;15917;50.014;8.352;2022-10-16T06:02:04;15.50;99.90
28761;DHT22;15917;50.014;8.352;2022-10-16T06:04:29;15.50;99.90
28761;DHT22;15917;50.014;8.352;2022-10-16T06:06:58;15.50;99.90
28761;DHT22;15917;50.014;8.352;2022-10-16T06:09:26;15.50;99.90
28761;DHT22;15917;50.014;8.352;2022-10-16T06:11:52;15.50;99.90
28761;DHT22;15917;50.014;8.352;2022-10-16T06:14:17;15.50;99.90
28761;DHT22;15917;50.014;8.352;2022-10-16T06:16:43;15.50;99.90
28761;DHT22;15917;50.014;8.352;2022-10-16T06:19:08;15.50;99.90
28761;DHT22;15917;50.014;8.352;2022-10-16T06:21:34;15.50;99.90
28761;DHT22;15917;50.014;8.352;2022-10-16T06:24:00;15.50;99.90
28761;DHT22;15917;50.014;8.352;2022-10-16T06:26:28;15.50;99.90
28761;DHT22;15917;50.014;8.352;2022-10-16T06:28:58;15.50;99.90
28761;DHT22;15917;50.014;8.352;2022-10-16T06:31:25;15.50;99.90
28761;DHT22;15917;50.014;8.352;2022-10-16T06:33:56;15.50;99.90
28761;DHT22;15917;50.014;8.352;2022-10-16T06:36:23;15.50;99.90
28761;DHT22;15917;50.014;8.352;2022-10-16T06:38:48;15.50;99.90
28761;DHT22;15917;50.014;8.352;2022-10-16T06:41:17;15.50;99.90
28761;DHT22;15917;50.014;8.352;2022-10-16T06:43:44;15.40;99.90
28761;DHT22;15917;50.014;8.352;2022-10-16T06:46:11;15.50;99.90
28761;DHT22;15917;50.014;8.352;2022-10-16T06:48:38;15.50;99.90
28761;DHT22;15917;50.014;8.352;2022-10-16T06:51:10;15.50;99.90
28761;DHT22;15917;50.014;8.352;2022-10-16T06:53:39;15.50;99.90
28761;DHT22;15917;50.014;8.352;2022-10-16T06:56:10;15.50;99.90
28761;DHT22;15917;50.014;8.352;2022-10-16T06:58:37;15.50;99.90
28761;DHT22;15917;50.014;8.352;2022-10-16T07:01:04;15.50;99.90
28761;DHT22;15917;50.014;8.352;2022-10-16T07:03:29;15.50;99.90
28761;DHT22;15917;50.014;8.352;2022-10-16T07:05:55;15.50;99.90
28761;DHT22;15917;50.014;8.352;2022-10-16T07:08:21;15.60;99.90
28761;DHT22;15917;50.014;8.352;2022-10-16T07:10:47;15.60;99.90
28761;DHT22;15917;50.014;8.352;2022-10-16T07:13:13;15.60;99.90
28761;DHT22;15917;50.014;8.352;2022-10-16T07:15:40;15.60;99.90
28761;DHT22;15917;50.014;8.352;2022-10-16T07:18:07;15.60;99.90
28761;DHT22;15917;50.014;8.352;2022-10-16T07:20:33;15.60;99.90
28761;DHT22;15917;50.014;8.352;2022-10-16T07:22:58;15.50;99.90
28761;DHT22;15917;50.014;8.352;2022-10-16T07:25:24;15.60;99.90
28761;DHT22;15917;50.014;8.352;2022-10-16T07:27:50;15.60;99.90
28761;DHT22;15917;50.014;8.352;2022-10-16T07:30:15;15.60;99.90
28761;DHT22;15917;50.014;8.352;2022-10-16T07:32:41;15.60;99.90
28761;DHT22;15917;50.014;8.352;2022-10-16T07:35:07;15.60;99.90
28761;DHT22;15917;50.014;8.352;2022-10-16T07:37:32;15.60;99.90
28761;DHT22;15917;50.014;8.352;2022-10-16T07:39:58;15.60;99.90
28761;DHT22;15917;50.014;8.352;2022-10-16T07:42:24;15.70;99.90
28761;DHT22;15917;50.014;8.352;2022-10-16T07:44:49;16.00;99.90
28761;DHT22;15917;50.014;8.352;2022-10-16T07:47:15;16.30;99.90
28761;DHT22;15917;50.014;8.352;2022-10-16T07:49:41;16.50;99.90
28761;DHT22;15917;50.014;8.352;2022-10-16T07:52:06;16.80;99.90
28761;DHT22;15917;50.014;8.352;2022-10-16T07:54:32;16.90;99.90
28761;DHT22;15917;50.014;8.352;2022-10-16T07:56:58;16.90;99.90
28761;DHT22;15917;50.014;8.352;2022-10-16T07:59:23;16.80;99.90
28761;DHT22;15917;50.014;8.352;2022-10-16T08:01:49;16.70;99.90
28761;DHT22;15917;50.014;8.352;2022-10-16T08:04:15;16.60;99.90
28761;DHT22;15917;50.014;8.352;2022-10-16T08:06:41;16.50;99.90
28761;DHT22;15917;50.014;8.352;2022-10-16T08:09:08;16.50;99.90
28761;DHT22;15917;50.014;8.352;2022-10-16T08:11:33;16.40;99.90
28761;DHT22;15917;50.014;8.352;2022-10-16T08:13:59;16.40;99.90
28761;DHT22;15917;50.014;8.352;2022-10-16T08:16:25;16.40;99.90
28761;DHT22;15917;50.014;8.352;2022-10-16T08:18:50;16.40;99.90
28761;DHT22;15917;50.014;8.352;2022-10-16T08:21:21;16.40;99.90
28761;DHT22;15917;50.014;8.352;2022-10-16T08:23:49;16.40;99.90
28761;DHT22;15917;50.014;8.352;2022-10-16T08:26:15;16.40;99.90
28761;DHT22;15917;50.014;8.352;2022-10-16T08:28:41;16.40;99.90
28761;DHT22;15917;50.014;8.352;2022-10-16T08:31:12;16.40;99.90
28761;DHT22;15917;50.014;8.352;2022-10-16T08:33:39;16.40;99.90
28761;DHT22;15917;50.014;8.352;2022-10-16T08:36:06;16.40;99.90
28761;DHT22;15917;50.014;8.352;2022-10-16T08:38:32;16.40;99.90
28761;DHT22;15917;50.014;8.352;2022-10-16T08:41:21;16.40;99.90
28761;DHT22;15917;50.014;8.352;2022-10-16T08:47:22;16.60;99.90
28761;DHT22;15917;50.014;8.352;2022-10-16T08:49:58;16.60;99.90
28761;DHT22;15917;50.014;8.352;2022-10-16T08:52:34;16.70;99.90
28761;DHT22;15917;50.014;8.352;2022-10-16T08:55:01;16.70;99.90
28761;DHT22;15917;50.014;8.352;2022-10-16T08:57:27;16.70;99.90
28761;DHT22;15917;50.014;8.352;2022-10-16T08:59:53;16.80;99.90
28761;DHT22;15917;50.014;8.352;2022-10-16T09:02:29;16.80;99.90
28761;DHT22;15917;50.014;8.352;2022-10-16T09:16:27;16.60;99.90
28761;DHT22;15917;50.014;8.352;2022-10-16T09:21:40;16.60;99.90
28761;DHT22;15917;50.014;8.352;2022-10-16T09:24:18;16.50;99.90
28761;DHT22;15917;50.014;8.352;2022-10-16T09:26:44;16.50;99.90
28761;DHT22;15917;50.014;8.352;2022-10-16T09:29:19;16.50;99.90
28761;DHT22;15917;50.014;8.352;2022-10-16T09:31:51;16.40;99.90
28761;DHT22;15917;50.014;8.352;2022-10-16T09:34:36;16.40;99.90
28761;DHT22;15917;50.014;8.352;2022-10-16T09:37:13;16.40;99.90
28761;DHT22;15917;50.014;8.352;2022-10-16T09:39:50;16.60;99.90
28761;DHT22;15917;50.014;8.352;2022-10-16T09:44:47;16.60;99.90
28761;DHT22;15917;50.014;8.352;2022-10-16T09:47:25;16.60;99.90
28761;DHT22;15917;50.014;8.352;2022-10-16T09:49:57;16.60;99.90
28761;DHT22;15917;50.014;8.352;2022-10-16T09:52:25;16.60;99.90
28761;DHT22;15917;50.014;8.352;2022-10-16T09:54:57;16.60;99.90
28761;DHT22;15917;50.014;8.352;2022-10-16T09:57:25;16.70;99.90
28761;DHT22;15917;50.014;8.352;2022-10-16T09:59:53;16.70;99.90
28761;DHT22;15917;50.014;8.352;2022-10-16T10:02:44;16.80;99.90
28761;DHT22;15917;50.014;8.352;2022-10-16T10:05:27;16.90;99.90
28761;DHT22;15917;50.014;8.352;2022-10-16T10:07:58;17.00;99.90
28761;DHT22;15917;50.014;8.352;2022-10-16T10:10:30;17.10;99.90
28761;DHT22;15917;50.014;8.352;2022-10-16T10:12:56;17.30;99.90
28761;DHT22;15917;50.014;8.352;2022-10-16T10:15:22;17.50;99.90
28761;DHT22;15917;50.014;8.352;2022-10-16T10:17:54;17.40;99.90
28761;DHT22;15917;50.014;8.352;2022-10-16T10:20:34;17.40;99.90
28761;DHT22;15917;50.014;8.352;2022-10-16T10:23:01;17.50;99.90
28761;DHT22;15917;50.014;8.352;2022-10-16T10:26:01;17.50;99.90
28761;DHT22;15917;50.014;8.352;2022-10-16T10:38:23;17.20;99.90
28761;DHT22;15917;50.014;8.352;2022-10-16T10:40:45;17.20;99.90
28761;DHT22;15917;50.014;8.352;2022-10-16T10:46:05;17.60;99.90
28761;DHT22;15917;50.014;8.352;2022-10-16T10:48:54;17.90;99.90
28761;DHT22;15917;50.014;8.352;2022-10-16T10:51:39;18.70;99.90
28761;DHT22;15917;50.014;8.352;2022-10-16T10:54:17;19.10;99.90
28761;DHT22;15917;50.014;8.352;2022-10-16T10:57:02;19.40;99.90
28761;DHT22;15917;50.014;8.352;2022-10-16T11:02:26;19.80;99.90
28761;DHT22;15917;50.014;8.352;2022-10-16T11:05:23;19.80;99.90
28761;DHT22;15917;50.014;8.352;2022-10-16T11:08:01;19.50;99.90
28761;DHT22;15917;50.014;8.352;2022-10-16T11:10:34;19.40;99.90
28761;DHT22;15917;50.014;8.352;2022-10-16T11:13:25;19.40;99.90
28761;DHT22;15917;50.014;8.352;2022-10-16T11:15:55;19.30;99.90
28761;DHT22;15917;50.014;8.352;2022-10-16T11:18:41;19.20;99.90
28761;DHT22;15917;50.014;8.352;2022-10-16T11:21:12;19.20;99.90
28761;DHT22;15917;50.014;8.352;2022-10-16T11:23:53;19.20;99.90
28761;DHT22;15917;50.014;8.352;2022-10-16T11:26:27;19.20;99.90
28761;DHT22;15917;50.014;8.352;2022-10-16T11:28:55;18.90;99.90
28761;DHT22;15917;50.014;8.352;2022-10-16T11:31:32;18.80;99.90
28761;DHT22;15917;50.014;8.352;2022-10-16T11:34:06;18.80;99.90
28761;DHT22;15917;50.014;8.352;2022-10-16T11:36:42;18.90;99.90
28761;DHT22;15917;50.014;8.352;2022-10-16T11:39:34;19.10;99.90
28761;DHT22;15917;50.014;8.352;2022-10-16T11:42:16;19.00;99.90
28761;DHT22;15917;50.014;8.352;2022-10-16T11:45:21;19.10;99.90
28761;DHT22;15917;50.014;8.352;2022-10-16T11:47:55;19.20;99.90
28761;DHT22;15917;50.014;8.352;2022-10-16T11:50:46;19.40;99.90
28761;DHT22;15917;50.014;8.352;2022-10-16T11:53:35;19.80;99.90
28761;DHT22;15917;50.014;8.352;2022-10-16T11:56:05;20.10;99.90
28761;DHT22;15917;50.014;8.352;2022-10-16T11:58:38;20.50;99.90
28761;DHT22;15917;50.014;8.352;2022-10-16T12:06:34;20.80;99.90
28761;DHT22;15917;50.014;8.352;2022-10-16T12:09:01;20.90;99.90
28761;DHT22;15917;50.014;8.352;2022-10-16T12:11:38;20.80;99.90
28761;DHT22;15917;50.014;8.352;2022-10-16T12:16:55;20.60;99.90
28761;DHT22;15917;50.014;8.352;2022-10-16T12:19:22;20.80;99.90
28761;DHT22;15917;50.014;8.352;2022-10-16T12:21:50;20.90;99.90
28761;DHT22;15917;50.014;8.352;2022-10-16T12:24:39;20.90;99.90
28761;DHT22;15917;50.014;8.352;2022-10-16T12:27:30;20.80;99.90
28761;DHT22;15917;50.014;8.352;2022-10-16T12:30:02;20.80;99.90
28761;DHT22;15917;50.014;8.352;2022-10-16T12:32:31;20.70;99.90
28761;DHT22;15917;50.014;8.352;2022-10-16T12:34:58;20.70;99.90
28761;DHT22;15917;50.014;8.352;2022-10-16T12:37:28;20.60;99.90
28761;DHT22;15917;50.014;8.352;2022-10-16T12:39:55;20.70;99.90
28761;DHT22;15917;50.014;8.352;2022-10-16T12:42:23;20.60;99.90
28761;DHT22;15917;50.014;8.352;2022-10-16T12:44:49;20.70;99.90
28761;DHT22;15917;50.014;8.352;2022-10-16T12:49:54;21.10;99.90
28761;DHT22;15917;50.014;8.352;2022-10-16T12:52:27;21.60;99.90
28761;DHT22;15917;50.014;8.352;2022-10-16T12:54:57;21.50;99.90
28761;DHT22;15917;50.014;8.352;2022-10-16T13:14:17;20.40;99.90
28761;DHT22;15917;50.014;8.352;2022-10-16T13:19:53;20.50;99.90
28761;DHT22;15917;50.014;8.352;2022-10-16T13:25:49;20.60;99.90
28761;DHT22;15917;50.014;8.352;2022-10-16T13:28:22;20.50;99.90
28761;DHT22;15917;50.014;8.352;2022-10-16T13:30:54;20.50;99.90
28761;DHT22;15917;50.014;8.352;2022-10-16T13:35:56;20.30;99.90
28761;DHT22;15917;50.014;8.352;2022-10-16T13:38:30;20.20;99.90
28761;DHT22;15917;50.014;8.352;2022-10-16T13:41:17;20.20;99.90
28761;DHT22;15917;50.014;8.352;2022-10-16T13:43:51;20.10;99.90
28761;DHT22;15917;50.014;8.352;2022-10-16T13:46:20;20.10;99.90
28761;DHT22;15917;50.014;8.352;2022-10-16T13:48:57;20.00;99.90
28761;DHT22;15917;50.014;8.352;2022-10-16T13:51:22;20.00;99.90
28761;DHT22;15917;50.014;8.352;2022-10-16T13:53:48;19.90;99.90
28761;DHT22;15917;50.014;8.352;2022-10-16T13:56:17;19.90;99.90
28761;DHT22;15917;50.014;8.352;2022-10-16T13:58:43;19.80;99.90
28761;DHT22;15917;50.014;8.352;2022-10-16T14:01:26;19.70;99.90
28761;DHT22;15917;50.014;8.352;2022-10-16T14:03:59;19.70;99.90
28761;DHT22;15917;50.014;8.352;2022-10-16T14:06:26;19.70;99.90
28761;DHT22;15917;50.014;8.352;2022-10-16T14:09:06;19.70;99.90
28761;DHT22;15917;50.014;8.352;2022-10-16T14:11:33;19.60;99.90
28761;DHT22;15917;50.014;8.352;2022-10-16T14:14:00;19.70;99.90
28761;DHT22;15917;50.014;8.352;2022-10-16T14:16:29;19.70;99.90
28761;DHT22;15917;50.014;8.352;2022-10-16T14:19:01;19.70;99.90
28761;DHT22;15917;50.014;8.352;2022-10-16T14:21:28;19.80;99.90
28761;DHT22;15917;50.014;8.352;2022-10-16T14:23:54;19.80;99.90
28761;DHT22;15917;50.014;8.352;2022-10-16T14:26:22;19.80;99.90
28761;DHT22;15917;50.014;8.352;2022-10-16T14:28:49;19.90;99.90
28761;DHT22;15917;50.014;8.352;2022-10-16T14:31:29;19.90;99.90
28761;DHT22;15917;50.014;8.352;2022-10-16T14:33:55;19.90;99.90
28761;DHT22;15917;50.014;8.352;2022-10-16T14:36:21;19.90;99.90
28761;DHT22;15917;50.014;8.352;2022-10-16T14:41:21;19.80;99.90
28761;DHT22;15917;50.014;8.352;2022-10-16T14:43:52;19.80;99.90
28761;DHT22;15917;50.014;8.352;2022-10-16T14:46:28;19.80;99.90
28761;DHT22;15917;50.014;8.352;2022-10-16T14:51:37;19.80;99.90
28761;DHT22;15917;50.014;8.352;2022-10-16T14:54:03;19.80;99.90
28761;DHT22;15917;50.014;8.352;2022-10-16T14:56:31;19.90;99.90
28761;DHT22;15917;50.014;8.352;2022-10-16T14:58:59;20.00;99.90
28761;DHT22;15917;50.014;8.352;2022-10-16T15:01:26;20.00;99.90
28761;DHT22;15917;50.014;8.352;2022-10-16T15:03:51;20.00;99.90
28761;DHT22;15917;50.014;8.352;2022-10-16T15:06:20;20.00;99.90
28761;DHT22;15917;50.014;8.352;2022-10-16T15:08:45;20.00;99.90
28761;DHT22;15917;50.014;8.352;2022-10-16T15:11:18;19.90;99.90
28761;DHT22;15917;50.014;8.352;2022-10-16T15:13:45;19.80;99.90
28761;DHT22;15917;50.014;8.352;2022-10-16T15:16:13;19.80;99.90
28761;DHT22;15917;50.014;8.352;2022-10-16T15:18:39;19.70;99.90
28761;DHT22;15917;50.014;8.352;2022-10-16T15:21:05;19.70;99.90
28761;DHT22;15917;50.014;8.352;2022-10-16T15:23:31;19.60;99.90
28761;DHT22;15917;50.014;8.352;2022-10-16T15:25:56;19.60;99.90
28761;DHT22;15917;50.014;8.352;2022-10-16T15:28:23;19.50;99.90
28761;DHT22;15917;50.014;8.352;2022-10-16T15:30:51;19.50;99.90
28761;DHT22;15917;50.014;8.352;2022-10-16T15:33:19;19.50;99.90
28761;DHT22;15917;50.014;8.352;2022-10-16T15:35:47;19.50;99.90
28761;DHT22;15917;50.014;8.352;2022-10-16T15:38:14;19.50;99.90
28761;DHT22;15917;50.014;8.352;2022-10-16T15:40:40;19.40;99.90
28761;DHT22;15917;50.014;8.352;2022-10-16T15:43:06;19.40;99.90
28761;DHT22;15917;50.014;8.352;2022-10-16T15:45:32;19.40;99.90
28761;DHT22;15917;50.014;8.352;2022-10-16T15:47:57;19.30;99.90
28761;DHT22;15917;50.014;8.352;2022-10-16T15:50:24;19.30;99.90
28761;DHT22;15917;50.014;8.352;2022-10-16T15:52:50;19.30;99.90
28761;DHT22;15917;50.014;8.352;2022-10-16T15:55:15;19.30;99.90
28761;DHT22;15917;50.014;8.352;2022-10-16T15:57:42;19.30;99.90
28761;DHT22;15917;50.014;8.352;2022-10-16T16:00:11;19.30;99.90
28761;DHT22;15917;50.014;8.352;2022-10-16T16:02:43;19.30;99.90
28761;DHT22;15917;50.014;8.352;2022-10-16T16:05:16;19.20;99.90
28761;DHT22;15917;50.014;8.352;2022-10-16T16:07:42;19.20;99.90
28761;DHT22;15917;50.014;8.352;2022-10-16T16:10:10;19.20;99.90
28761;DHT22;15917;50.014;8.352;2022-10-16T16:12:36;19.20;99.90
28761;DHT22;15917;50.014;8.352;2022-10-16T16:15:06;19.10;99.90
28761;DHT22;15917;50.014;8.352;2022-10-16T16:17:34;19.10;99.90
28761;DHT22;15917;50.014;8.352;2022-10-16T16:20:00;19.10;99.90
28761;DHT22;15917;50.014;8.352;2022-10-16T16:22:26;19.10;99.90
28761;DHT22;15917;50.014;8.352;2022-10-16T16:24:52;19.00;99.90
28761;DHT22;15917;50.014;8.352;2022-10-16T16:27:17;19.00;99.90
28761;DHT22;15917;50.014;8.352;2022-10-16T16:29:45;18.90;99.90
28761;DHT22;15917;50.014;8.352;2022-10-16T16:32:11;18.90;99.90
28761;DHT22;15917;50.014;8.352;2022-10-16T16:34:37;18.90;99.90
28761;DHT22;15917;50.014;8.352;2022-10-16T16:37:02;18.90;99.90
28761;DHT22;15917;50.014;8.352;2022-10-16T16:39:28;18.80;99.90
28761;DHT22;15917;50.014;8.352;2022-10-16T16:41:56;18.80;99.90
28761;DHT22;15917;50.014;8.352;2022-10-16T16:44:22;18.80;99.90
28761;DHT22;15917;50.014;8.352;2022-10-16T16:46:47;18.70;99.90
28761;DHT22;15917;50.014;8.352;2022-10-16T16:49:13;18.70;99.90
28761;DHT22;15917;50.014;8.352;2022-10-16T16:51:40;18.70;99.90
28761;DHT22;15917;50.014;8.352;2022-10-16T16:54:06;18.60;99.90
28761;DHT22;15917;50.014;8.352;2022-10-16T16:56:33;18.60;99.90
28761;DHT22;15917;50.014;8.352;2022-10-16T16:58:59;18.60;99.90
28761;DHT22;15917;50.014;8.352;2022-10-16T17:01:26;18.60;99.90
28761;DHT22;15917;50.014;8.352;2022-10-16T17:03:55;18.50;99.90
28761;DHT22;15917;50.014;8.352;2022-10-16T17:06:24;18.50;99.90
28761;DHT22;15917;50.014;8.352;2022-10-16T17:08:50;18.50;99.90
28761;DHT22;15917;50.014;8.352;2022-10-16T17:11:19;18.50;99.90
28761;DHT22;15917;50.014;8.352;2022-10-16T17:13:46;18.50;99.90